createdAt,value
2019-04-01T00:01:16.373Z,10.80
2019-04-01T00:03:45.900Z,10.90
2019-04-01T00:06:14.739Z,10.80
2019-04-01T00:08:43.587Z,10.70
2019-04-01T00:11:12.434Z,10.50
2019-04-01T00:13:41.278Z,10.50
2019-04-01T00:16:10.118Z,10.50
2019-04-01T00:18:38.959Z,10.50
2019-04-01T00:21:07.799Z,10.40
2019-04-01T00:23:36.630Z,10.50
2019-04-01T00:26:05.476Z,10.50
2019-04-01T00:28:34.307Z,10.60
2019-04-01T00:31:03.153Z,10.50
2019-04-01T00:33:31.992Z,10.40
2019-04-01T00:36:00.836Z,10.40
2019-04-01T00:38:29.681Z,10.40
2019-04-01T00:40:58.510Z,10.20
2019-04-01T00:43:27.444Z,10.20
2019-04-01T00:45:56.288Z,10.00
2019-04-01T00:48:25.129Z,10.00
2019-04-01T00:50:54.842Z,9.80
2019-04-01T00:53:23.633Z,9.60
2019-04-01T00:55:53.213Z,9.70
2019-04-01T00:58:22.053Z,9.60
2019-04-01T01:00:50.892Z,9.40
2019-04-01T01:03:19.736Z,9.40
2019-04-01T01:05:48.571Z,9.50
2019-04-01T01:08:17.412Z,9.70
2019-04-01T01:10:46.259Z,9.80
2019-04-01T01:13:15.108Z,9.80
2019-04-01T01:15:43.942Z,9.80
2019-04-01T01:18:12.786Z,9.50
2019-04-01T01:20:41.661Z,9.70
2019-04-01T01:23:10.499Z,9.60
2019-04-01T01:25:39.340Z,9.50
2019-04-01T01:28:08.174Z,9.40
2019-04-01T01:30:37.076Z,9.40
2019-04-01T01:33:05.850Z,9.40
2019-04-01T01:35:34.670Z,9.40
2019-04-01T01:38:03.513Z,9.50
2019-04-01T01:40:32.348Z,9.40
2019-04-01T01:43:01.189Z,9.10
2019-04-01T01:45:30.014Z,9.20
2019-04-01T01:47:59.600Z,9.20
2019-04-01T01:50:28.442Z,9.30
2019-04-01T01:52:57.286Z,9.20
2019-04-01T01:57:55.540Z,9.30
2019-04-01T02:00:24.379Z,9.30
2019-04-01T02:02:53.224Z,9.20
2019-04-01T02:05:22.074Z,9.40
2019-04-01T02:07:50.900Z,9.40
2019-04-01T02:10:19.730Z,9.30
2019-04-01T02:12:48.655Z,9.20
2019-04-01T02:15:17.418Z,9.10
2019-04-01T02:17:46.308Z,9.00
2019-04-01T02:20:15.098Z,8.80
2019-04-01T02:22:43.935Z,8.50
2019-04-01T02:25:12.768Z,8.70
2019-04-01T02:27:42.344Z,8.80
2019-04-01T02:30:11.180Z,8.90
2019-04-01T02:32:40.024Z,8.90
2019-04-01T02:35:08.858Z,9.00
2019-04-01T02:37:37.700Z,9.00
2019-04-01T02:40:06.546Z,8.90
2019-04-01T02:42:35.396Z,8.90
2019-04-01T02:45:04.235Z,8.80
2019-04-01T02:47:33.075Z,8.90
2019-04-01T02:50:02.671Z,8.90
2019-04-01T02:52:31.506Z,8.90
2019-04-01T02:55:00.611Z,8.80
2019-04-01T02:57:29.935Z,8.80
2019-04-01T02:59:58.772Z,8.80
2019-04-01T03:02:27.619Z,8.80
2019-04-01T03:04:56.442Z,8.80
2019-04-01T03:07:26.056Z,8.60
2019-04-01T03:09:54.925Z,8.70
2019-04-01T03:12:23.740Z,8.60
2019-04-01T03:14:52.572Z,8.60
2019-04-01T03:17:21.406Z,8.60
2019-04-01T03:19:50.988Z,8.40
2019-04-01T03:22:19.825Z,8.40
2019-04-01T03:24:48.665Z,8.40
2019-04-01T03:27:17.791Z,8.40
2019-04-01T03:29:46.387Z,8.40
2019-04-01T03:32:15.201Z,8.30
2019-04-01T03:34:44.033Z,8.30
2019-04-01T03:37:13.641Z,8.20
2019-04-01T03:39:43.217Z,8.10
2019-04-01T03:42:12.116Z,8.20
2019-04-01T03:44:40.925Z,8.20
2019-04-01T03:47:09.759Z,8.20
2019-04-01T03:49:38.596Z,8.20
2019-04-01T03:52:10.267Z,8.20
2019-04-01T03:54:36.283Z,8.20
2019-04-01T03:57:05.148Z,8.20
2019-04-01T03:59:33.982Z,8.20
2019-04-01T04:02:02.862Z,8.00
2019-04-01T04:07:01.116Z,8.10
2019-04-01T04:09:29.953Z,7.80
2019-04-01T04:11:58.802Z,7.90
2019-04-01T04:14:27.657Z,8.00
2019-04-01T04:16:56.495Z,8.00
2019-04-01T04:19:25.340Z,7.70
2019-04-01T04:21:54.239Z,7.80
2019-04-01T04:24:23.759Z,7.90
2019-04-01T04:26:52.595Z,7.90
2019-04-01T04:29:21.433Z,7.90
2019-04-01T04:31:50.270Z,8.00
2019-04-01T04:34:19.115Z,8.10
2019-04-01T04:36:47.961Z,8.00
2019-04-01T04:39:16.815Z,8.00
2019-04-01T04:41:45.636Z,7.70
2019-04-01T04:44:14.495Z,7.80
2019-04-01T04:46:43.332Z,7.80
2019-04-01T04:49:12.163Z,7.70
2019-04-01T04:51:41.741Z,7.80
2019-04-01T04:54:10.590Z,7.80
2019-04-01T04:56:39.436Z,7.80
2019-04-01T04:59:08.285Z,7.70
2019-04-01T05:01:37.126Z,7.70
2019-04-01T05:04:05.954Z,7.70
2019-04-01T05:06:34.795Z,7.80
2019-04-01T05:09:03.625Z,7.80
2019-04-01T05:11:32.464Z,7.80
2019-04-01T05:14:01.329Z,7.80
2019-04-01T05:16:30.164Z,7.80
2019-04-01T05:18:59.776Z,7.80
2019-04-01T05:21:28.676Z,7.80
2019-04-01T05:23:58.271Z,7.90
2019-04-01T05:26:27.857Z,7.80
2019-04-01T05:28:56.750Z,7.90
2019-04-01T05:31:25.595Z,7.70
2019-04-01T05:33:55.994Z,7.10
2019-04-01T05:36:23.990Z,7.00
2019-04-01T05:38:52.853Z,7.30
2019-04-01T05:41:22.458Z,7.20
2019-04-01T05:43:51.314Z,7.30
2019-04-01T05:46:20.144Z,7.30
2019-04-01T05:48:48.978Z,7.40
2019-04-01T05:51:17.808Z,7.30
2019-04-01T05:53:46.662Z,7.40
2019-04-01T05:56:15.520Z,7.50
2019-04-01T05:58:44.380Z,7.60
2019-04-01T06:01:13.249Z,7.60
2019-04-01T06:03:42.049Z,7.60
2019-04-01T06:06:11.643Z,7.60
2019-04-01T06:08:40.495Z,7.60
2019-04-01T06:11:09.334Z,7.70
2019-04-01T06:13:38.192Z,7.80
2019-04-01T06:16:07.080Z,7.80
2019-04-01T06:18:35.880Z,7.90
2019-04-01T06:21:04.717Z,8.00
2019-04-01T06:23:33.567Z,8.00
2019-04-01T06:26:02.414Z,7.90
2019-04-01T06:28:31.243Z,8.00
2019-04-01T06:31:00.084Z,8.00
2019-04-01T06:33:28.938Z,8.20
2019-04-01T06:35:57.773Z,8.20
2019-04-01T06:38:26.617Z,8.20
2019-04-01T06:40:56.214Z,8.30
2019-04-01T06:43:25.069Z,8.40
2019-04-01T06:45:53.914Z,8.50
2019-04-01T06:48:22.757Z,8.50
2019-04-01T06:50:51.608Z,8.50
2019-04-01T06:53:20.447Z,8.70
2019-04-01T06:55:49.281Z,8.60
2019-04-01T06:58:18.145Z,8.70
2019-04-01T07:00:47.728Z,8.80
2019-04-01T07:05:45.981Z,9.00
2019-04-01T07:08:14.822Z,9.00
2019-04-01T07:10:43.734Z,9.00
2019-04-01T07:13:12.545Z,9.10
2019-04-01T07:15:41.381Z,9.20
2019-04-01T07:18:10.225Z,9.20
2019-04-01T07:20:39.057Z,9.30
2019-04-01T07:23:07.887Z,9.30
2019-04-01T07:25:36.775Z,9.40
2019-04-01T07:28:05.586Z,9.50
2019-04-01T07:30:34.491Z,9.60
2019-04-01T07:33:03.354Z,9.60
2019-04-01T07:35:32.186Z,9.70
2019-04-01T07:38:01.047Z,9.70
2019-04-01T07:40:29.889Z,9.80
2019-04-01T07:42:59.483Z,9.80
2019-04-01T07:45:28.318Z,9.90
2019-04-01T07:47:57.164Z,10.10
2019-04-01T07:50:26.005Z,9.90
2019-04-01T07:52:55.560Z,10.10
2019-04-01T07:55:23.690Z,10.10
2019-04-01T07:57:52.528Z,10.10
2019-04-01T08:00:21.462Z,10.20
2019-04-01T08:02:50.220Z,10.30
2019-04-01T08:05:19.065Z,10.40
2019-04-01T08:07:47.929Z,10.40
2019-04-01T08:10:16.777Z,10.50
2019-04-01T08:12:45.640Z,10.50
2019-04-01T08:15:14.474Z,10.60
2019-04-01T08:17:43.326Z,10.70
2019-04-01T08:20:12.175Z,10.80
2019-04-01T08:22:43.292Z,10.80
2019-04-01T08:25:10.616Z,11.00
2019-04-01T08:27:39.470Z,11.00
2019-04-01T08:30:08.347Z,11.00
2019-04-01T08:32:37.199Z,11.00
2019-04-01T08:35:06.133Z,11.00
2019-04-01T08:37:34.905Z,11.10
2019-04-01T08:40:03.770Z,11.20
2019-04-01T08:42:32.615Z,11.30
2019-04-01T08:45:01.454Z,11.20
2019-04-01T08:47:31.043Z,11.30
2019-04-01T08:49:59.893Z,11.50
2019-04-01T08:52:28.743Z,11.60
2019-04-01T08:54:57.606Z,11.70
2019-04-01T08:57:26.467Z,11.80
2019-04-01T08:59:56.471Z,11.80
2019-04-01T09:02:24.891Z,11.80
2019-04-01T09:04:53.749Z,11.90
2019-04-01T09:07:22.606Z,12.00
2019-04-01T09:09:51.455Z,12.10
2019-04-01T09:12:20.330Z,12.10
2019-04-01T09:14:49.164Z,12.00
2019-04-01T09:17:18.743Z,12.10
2019-04-01T09:19:47.583Z,12.30
2019-04-01T09:22:16.431Z,12.40
2019-04-01T09:24:46.031Z,12.50
2019-04-01T09:27:14.867Z,12.70
2019-04-01T09:29:43.713Z,12.60
2019-04-01T09:32:13.344Z,12.70
2019-04-01T09:34:42.181Z,12.70
2019-04-01T09:37:11.057Z,12.70
2019-04-01T09:39:39.870Z,12.70
2019-04-01T09:42:08.718Z,12.80
2019-04-01T09:44:37.565Z,13.00
2019-04-01T09:47:06.977Z,13.00
2019-04-01T09:49:36.569Z,13.10
2019-04-01T09:52:06.152Z,13.30
2019-04-01T09:54:35.031Z,13.50
2019-04-01T09:57:16.613Z,13.70
2019-04-01T09:59:32.695Z,13.60
2019-04-01T10:02:01.541Z,13.60
2019-04-01T10:04:31.133Z,13.70
2019-04-01T10:06:59.993Z,13.60
2019-04-01T10:09:28.850Z,13.50
2019-04-01T10:11:57.709Z,13.70
2019-04-01T10:14:27.297Z,13.60
2019-04-01T10:16:56.144Z,13.70
2019-04-01T10:19:25.006Z,13.60
2019-04-01T10:21:53.850Z,13.70
2019-04-01T10:24:22.679Z,13.80
2019-04-01T10:26:52.277Z,13.90
2019-04-01T10:29:21.158Z,14.20
2019-04-01T10:31:49.958Z,14.30
2019-04-01T10:34:18.826Z,14.20
2019-04-01T10:36:47.664Z,14.20
2019-04-01T10:39:16.500Z,14.50
2019-04-01T10:41:45.408Z,14.30
2019-04-01T10:44:14.208Z,14.10
2019-04-01T10:46:43.855Z,14.50
2019-04-01T10:49:12.693Z,14.70
2019-04-01T10:51:41.521Z,14.60
2019-04-01T10:54:10.340Z,14.70
2019-04-01T10:56:39.255Z,14.80
2019-04-01T10:59:08.798Z,14.90
2019-04-01T11:01:37.726Z,15.10
2019-04-01T11:04:06.561Z,15.30
2019-04-01T11:06:36.051Z,15.30
2019-04-01T11:09:04.991Z,15.20
2019-04-01T11:11:33.747Z,15.40
2019-04-01T11:14:02.609Z,15.60
2019-04-01T11:16:31.937Z,15.50
2019-04-01T11:19:00.303Z,15.60
2019-04-01T11:21:29.167Z,15.80
2019-04-01T11:23:58.022Z,15.90
2019-04-01T11:26:26.855Z,16.00
2019-04-01T11:28:55.712Z,16.10
2019-04-01T11:31:24.597Z,16.20
2019-04-01T11:33:53.498Z,16.10
2019-04-01T11:36:22.297Z,16.10
2019-04-01T11:38:51.876Z,16.30
2019-04-01T11:41:20.737Z,16.30
2019-04-01T11:43:49.551Z,16.20
2019-04-01T11:46:18.404Z,16.30
2019-04-01T11:48:47.243Z,16.50
2019-04-01T11:51:31.187Z,16.40
2019-04-01T11:53:44.943Z,16.20
2019-04-01T11:56:13.805Z,16.40
2019-04-01T11:58:42.654Z,16.50
2019-04-01T12:01:11.504Z,16.50
2019-04-01T12:03:40.389Z,16.50
2019-04-01T12:06:09.251Z,16.60
2019-04-01T12:08:38.089Z,16.90
2019-04-01T12:11:06.931Z,17.10
2019-04-01T12:13:35.771Z,16.90
2019-04-01T12:16:04.760Z,17.00
2019-04-01T12:18:33.468Z,17.10
2019-04-01T12:21:03.060Z,17.10
2019-04-01T12:26:14.422Z,17.00
2019-04-01T12:28:30.225Z,17.30
2019-04-01T12:30:59.083Z,17.30
2019-04-01T12:33:27.921Z,17.20
2019-04-01T12:36:11.175Z,17.20
2019-04-01T12:38:29.691Z,17.30
2019-04-01T12:40:58.541Z,17.60
2019-04-01T12:43:27.386Z,17.70
2019-04-01T12:45:56.246Z,17.60
2019-04-01T12:48:25.592Z,17.70
2019-04-01T12:50:53.947Z,17.80
2019-04-01T12:53:22.774Z,17.80
2019-04-01T12:55:51.612Z,17.90
2019-04-01T12:58:24.961Z,18.10
2019-04-01T13:00:51.598Z,18.40
2019-04-01T13:03:19.987Z,18.30
2019-04-01T13:05:48.709Z,18.30
2019-04-01T13:08:17.574Z,18.10
2019-04-01T13:10:46.439Z,18.40
2019-04-01T13:13:15.728Z,18.40
2019-04-01T13:15:44.869Z,18.70
2019-04-01T13:18:13.720Z,18.90
2019-04-01T13:20:42.574Z,18.80
2019-04-01T13:23:11.447Z,18.80
2019-04-01T13:25:40.304Z,18.70
2019-04-01T13:28:09.148Z,18.70
2019-04-01T13:30:38.012Z,18.80
2019-04-01T13:33:06.863Z,19.00
2019-04-01T13:35:35.721Z,18.90
2019-04-01T13:38:04.581Z,19.30
2019-04-01T13:40:33.434Z,19.40
2019-04-01T13:43:04.646Z,19.70
2019-04-01T13:45:31.873Z,19.60
2019-04-01T13:47:59.953Z,19.80
2019-04-01T13:50:28.804Z,20.00
2019-04-01T13:52:57.633Z,20.00
2019-04-01T13:55:26.485Z,20.10
2019-04-01T13:57:55.327Z,20.20
2019-04-01T14:00:27.348Z,20.30
2019-04-01T14:02:53.744Z,20.30
2019-04-01T14:05:22.601Z,20.30
2019-04-01T14:07:51.439Z,20.30
2019-04-01T14:10:21.031Z,20.40
2019-04-01T14:12:49.874Z,20.20
2019-04-01T14:15:18.735Z,20.40
2019-04-01T14:17:47.564Z,20.30
2019-04-01T14:20:16.415Z,20.30
2019-04-01T14:22:45.273Z,20.30
2019-04-01T14:25:14.477Z,20.40
2019-04-01T14:27:42.973Z,20.50
2019-04-01T14:30:11.834Z,20.30
2019-04-01T14:32:41.408Z,20.50
2019-04-01T14:35:10.263Z,20.60
2019-04-01T14:37:39.899Z,20.60
2019-04-01T14:40:09.076Z,20.50
2019-04-01T14:42:39.527Z,20.40
2019-04-01T14:45:06.390Z,20.50
2019-04-01T14:47:35.966Z,20.60
2019-04-01T14:50:07.717Z,20.70
2019-04-01T14:52:33.680Z,20.60
2019-04-01T14:55:03.263Z,20.50
2019-04-01T14:57:32.105Z,20.40
2019-04-01T15:00:00.949Z,20.20
2019-04-01T15:02:30.541Z,20.20
2019-04-01T15:04:59.403Z,20.30
2019-04-01T15:07:28.252Z,20.20
2019-04-01T15:09:57.118Z,20.20
2019-04-01T15:12:25.970Z,20.20
2019-04-01T15:14:54.800Z,20.30
2019-04-01T15:17:23.741Z,20.30
2019-04-01T15:19:52.492Z,20.20
2019-04-01T15:22:22.718Z,20.10
2019-04-01T15:24:50.194Z,20.10
2019-04-01T15:27:22.390Z,20.20
2019-04-01T15:29:48.642Z,20.20
2019-04-01T15:32:17.483Z,20.10
2019-04-01T15:34:46.333Z,20.00
2019-04-01T15:37:15.177Z,20.00
2019-04-01T15:39:47.014Z,19.90
2019-04-01T15:42:14.118Z,19.80
2019-04-01T15:44:41.691Z,19.80
2019-04-01T15:47:10.559Z,19.80
2019-04-01T15:49:40.215Z,19.80
2019-04-01T15:52:08.231Z,19.80
2019-04-01T15:54:37.815Z,19.80
2019-04-01T15:57:06.652Z,19.70
2019-04-01T15:59:35.486Z,19.60
2019-04-01T16:02:04.360Z,19.50
2019-04-01T16:04:33.211Z,19.50
2019-04-01T16:07:02.027Z,19.50
2019-04-01T16:09:30.861Z,19.50
2019-04-01T16:12:00.452Z,19.40
2019-04-01T16:14:29.307Z,19.40
2019-04-01T16:16:58.174Z,19.30
2019-04-01T16:19:29.136Z,19.20
2019-04-01T16:21:56.633Z,19.20
2019-04-01T16:24:25.573Z,19.30
2019-04-01T16:26:54.410Z,19.30
2019-04-01T16:29:23.219Z,19.20
2019-04-01T16:31:55.206Z,19.20
2019-04-01T16:34:20.969Z,19.10
2019-04-01T16:39:11.049Z,18.90
2019-04-01T16:41:39.908Z,18.90
2019-04-01T16:44:09.486Z,18.80
2019-04-01T16:46:38.330Z,18.60
2019-04-01T16:49:07.725Z,18.60
2019-04-01T16:51:36.018Z,18.50
2019-04-01T16:54:04.857Z,18.50
2019-04-01T16:56:34.464Z,18.40
2019-04-01T16:59:03.316Z,18.30
2019-04-01T17:01:32.174Z,18.30
2019-04-01T17:04:01.025Z,18.20
2019-04-01T17:06:29.881Z,18.10
2019-04-01T17:08:58.741Z,18.00
2019-04-01T17:11:27.577Z,17.90
2019-04-01T17:13:56.430Z,17.80
2019-04-01T17:16:25.294Z,17.80
2019-04-01T17:18:57.508Z,17.70
2019-04-01T17:21:22.983Z,17.60
2019-04-01T17:23:52.563Z,17.50
2019-04-01T17:26:22.259Z,17.40
2019-04-01T17:28:50.253Z,17.40
2019-04-01T17:31:19.101Z,17.30
2019-04-01T17:33:48.060Z,17.30
2019-04-01T17:36:16.791Z,17.20
2019-04-01T17:38:48.102Z,17.20
2019-04-01T17:41:14.493Z,17.10
2019-04-01T17:43:43.336Z,17.00
2019-04-01T17:46:12.166Z,17.00
2019-04-01T17:48:41.778Z,16.90
2019-04-01T17:51:11.355Z,16.80
2019-04-01T17:53:40.197Z,16.80
2019-04-01T17:56:09.037Z,16.70
2019-04-01T17:58:37.871Z,16.60
2019-04-01T18:01:06.717Z,16.60
2019-04-01T18:03:35.567Z,16.50
2019-04-01T18:06:04.411Z,16.50
2019-04-01T18:08:34.218Z,16.40
2019-04-01T18:11:02.853Z,16.40
2019-04-01T18:13:31.692Z,16.30
2019-04-01T18:16:00.536Z,16.20
2019-04-01T18:18:29.387Z,16.30
2019-04-01T18:20:58.238Z,16.20
2019-04-01T18:23:27.079Z,16.10
2019-04-01T18:25:55.941Z,16.10
2019-04-01T18:28:24.797Z,16.00
2019-04-01T18:30:53.623Z,16.00
2019-04-01T18:33:23.220Z,15.90
2019-04-01T18:35:52.051Z,16.00
2019-04-01T18:38:20.896Z,15.90
2019-04-01T18:40:49.749Z,15.90
2019-04-01T18:43:18.591Z,15.80
2019-04-01T18:45:48.186Z,15.70
2019-04-01T18:48:17.033Z,15.70
2019-04-01T18:50:45.886Z,15.70
2019-04-01T18:53:14.754Z,15.70
2019-04-01T18:55:43.606Z,15.70
2019-04-01T18:58:12.457Z,15.60
2019-04-01T19:00:41.370Z,15.50
2019-04-01T19:03:10.659Z,15.40
2019-04-01T19:05:39.231Z,15.40
2019-04-01T19:08:07.824Z,15.40
2019-04-01T19:10:39.157Z,15.40
2019-04-01T19:13:07.578Z,15.30
2019-04-01T19:15:35.710Z,15.20
2019-04-01T19:18:03.253Z,15.20
2019-04-01T19:20:32.843Z,15.20
2019-04-01T19:23:02.233Z,15.20
2019-04-01T19:25:30.543Z,15.10
2019-04-01T19:28:00.133Z,15.00
2019-04-01T19:30:28.989Z,15.00
2019-04-01T19:32:57.850Z,15.00
2019-04-01T19:35:26.699Z,14.90
2019-04-01T19:37:56.366Z,14.90
2019-04-01T19:40:24.473Z,15.00
2019-04-01T19:42:53.274Z,14.90
2019-04-01T19:45:22.130Z,14.80
2019-04-01T19:47:51.001Z,14.80
2019-04-01T19:50:19.887Z,14.60
2019-04-01T19:52:48.701Z,14.70
2019-04-01T19:55:17.573Z,14.70
2019-04-01T19:57:46.417Z,14.70
2019-04-01T20:00:27.010Z,14.70
2019-04-01T20:02:44.095Z,14.60
2019-04-01T20:05:12.969Z,14.60
2019-04-01T20:10:11.991Z,14.50
2019-04-01T20:12:41.217Z,14.50
2019-04-01T20:15:11.826Z,14.50
2019-04-01T20:17:39.583Z,14.40
2019-04-01T20:20:08.105Z,14.40
2019-04-01T20:22:36.948Z,14.30
2019-04-01T20:25:06.531Z,14.20
2019-04-01T20:27:35.451Z,14.20
2019-04-01T20:30:05.187Z,14.20
2019-04-01T20:32:34.029Z,14.10
2019-04-01T20:35:02.861Z,14.10
2019-04-01T20:37:31.720Z,14.10
2019-04-01T20:40:00.531Z,14.10
2019-04-01T20:42:29.379Z,14.00
2019-04-01T20:44:58.223Z,14.00
2019-04-01T20:47:28.482Z,14.00
2019-04-01T20:49:56.442Z,14.00
2019-04-01T20:52:25.270Z,14.00
2019-04-01T20:54:54.164Z,14.00
2019-04-01T20:57:23.015Z,14.10
2019-04-01T20:59:51.854Z,14.20
2019-04-01T21:02:20.698Z,14.10
2019-04-01T21:04:49.530Z,14.00
2019-04-01T21:07:18.686Z,14.00
2019-04-01T21:09:47.995Z,13.90
2019-04-01T21:12:16.834Z,14.10
2019-04-01T21:14:45.664Z,14.00
2019-04-01T21:17:14.522Z,14.00
2019-04-01T21:19:44.288Z,13.90
2019-04-01T21:22:12.970Z,13.80
2019-04-01T21:24:41.834Z,13.70
2019-04-01T21:27:10.673Z,13.80
2019-04-01T21:29:40.248Z,13.70
2019-04-01T21:32:09.118Z,13.60
2019-04-01T21:34:37.975Z,13.70
2019-04-01T21:37:06.819Z,13.50
2019-04-01T21:42:05.837Z,13.50
2019-04-01T21:44:34.677Z,13.60
2019-04-01T21:47:03.555Z,13.50
2019-04-01T21:49:32.420Z,13.50
2019-04-01T21:52:02.244Z,13.50
2019-04-01T21:54:30.859Z,13.60
2019-04-01T21:56:59.697Z,13.60
2019-04-01T21:59:29.305Z,13.60
2019-04-01T22:01:58.141Z,13.60
2019-04-01T22:04:26.981Z,13.60
2019-04-01T22:06:56.551Z,13.60
2019-04-01T22:09:25.400Z,13.60
2019-04-01T22:11:54.244Z,13.60
2019-04-01T22:14:23.072Z,13.60
2019-04-01T22:16:51.985Z,13.60
2019-04-01T22:19:20.751Z,13.60
2019-04-01T22:21:49.586Z,13.60
2019-04-01T22:24:18.434Z,13.60
2019-04-01T22:26:47.276Z,13.60
2019-04-01T22:31:45.551Z,13.60
2019-04-01T22:34:14.391Z,13.50
2019-04-01T22:36:43.236Z,13.50
2019-04-01T22:39:12.066Z,13.50
2019-04-01T22:41:41.652Z,13.50
2019-04-01T22:44:09.741Z,13.50
2019-04-01T22:46:39.326Z,13.50
2019-04-01T22:49:08.158Z,13.50
2019-04-01T22:51:37.262Z,13.50
2019-04-01T22:54:05.846Z,13.40
2019-04-01T22:56:34.710Z,13.40
2019-04-01T22:59:03.546Z,13.40
2019-04-01T23:01:32.359Z,13.40
2019-04-01T23:04:01.239Z,13.40
2019-04-01T23:06:30.074Z,13.30
2019-04-01T23:08:59.931Z,13.30
2019-04-01T23:11:27.770Z,13.30
2019-04-01T23:13:56.604Z,13.30
2019-04-01T23:16:25.452Z,13.20
2019-04-01T23:18:54.297Z,13.30
2019-04-01T23:21:23.868Z,13.20
2019-04-01T23:23:52.712Z,13.20
2019-04-01T23:26:21.560Z,13.20
2019-04-01T23:28:50.400Z,13.20
2019-04-01T23:31:19.236Z,13.10
2019-04-01T23:33:48.116Z,13.10
2019-04-01T23:36:16.973Z,13.10
2019-04-01T23:38:45.805Z,13.10
2019-04-01T23:41:14.679Z,13.10
2019-04-01T23:43:43.498Z,13.00
2019-04-01T23:46:12.342Z,13.00
2019-04-01T23:48:42.131Z,13.00
2019-04-01T23:51:10.040Z,12.90
2019-04-01T23:53:38.884Z,12.90
2019-04-01T23:56:07.718Z,12.90
2019-04-01T23:58:36.556Z,12.90
